Terminal Aerodrome Forecast
Issued by NWS

Current Version | Previous Version | Graphics & Text | Print | Product List | Glossary On
Versions: 1 2 3 4 5 6 7 8 9 10 11 12 13 14 15 16 17 18 19 20
000
FTUS41 KPBZ 032200 AAB
TAFHLG
TAF AMD
KHLG 032200Z 0322/0418 29007KT P6SM VCSH FEW019 BKN050
     FM041100 29005KT P6SM SCT250
     FM041700 25009G15KT P6SM SKC=

USA.gov is the U.S. government's official web portal to all federal, state and local government web resources and services.